| time (UTC) | temp F | wind direction | speed MPH | gust MPH | rain 1hr in | rain 24hr in | rain mn in | humidity % | barometer mb |
| 20260506170004 | 37 | 317 | 2.0 | 6.0 | 0.00 | 0.00 | 0.00 | 49 | 1011.3 |
| 20260506165615 | 37 | 284 | 6.0 | 6.0 | 0.00 | 0.00 | 0.00 | 50 | 1011.3 |
| 20260506164712 | 38 | 301 | 6.0 | 11.0 | 0.00 | 0.00 | 0.00 | 47 | 1011.2 |
| 20260506163603 | 40 | 276 | 10.0 | 10.0 | 0.00 | 0.00 | 0.00 | 45 | 1011.4 |
| 20260506162703 | 39 | 271 | 4.0 | 9.0 | 0.00 | 0.00 | 0.00 | 45 | 1011.4 |
| 20260506162015 | 40 | 282 | 5.0 | 13.0 | 0.00 | 0.00 | 0.00 | 46 | 1011.4 |
| 20260506160903 | 41 | 309 | 8.0 | 13.0 | 0.00 | 0.00 | 0.00 | 43 | 1011.4 |
| 20260506160214 | 43 | 333 | 5.0 | 5.0 | 0.00 | 0.00 | 0.00 | 43 | 1011.5 |
| 20260506155616 | 43 | 305 | 3.0 | 6.0 | 0.00 | 0.00 | 0.00 | 43 | 1011.5 |
| 20260506154713 | 44 | 356 | 2.0 | 8.0 | 0.00 | 0.00 | 0.00 | 43 | 1011.5 |
| 20260506153603 | 42 | 276 | 3.0 | 13.0 | 0.00 | 0.00 | 0.00 | 45 | 1011.4 |
| 20260506152703 | 42 | 282 | 13.0 | 13.0 | 0.00 | 0.00 | 0.00 | 45 | 1011.4 |
| 20260506151803 | 41 | 296 | 3.0 | 12.0 | 0.00 | 0.00 | 0.00 | 45 | 1011.3 |
| 20260506151113 | 42 | 299 | 4.0 | 14.0 | 0.00 | 0.00 | 0.00 | 44 | 1011.2 |
| 20260506150215 | 44 | 322 | 5.0 | 6.0 | 0.00 | 0.00 | 0.00 | 41 | 1011.2 |
| 20260506145403 | 42 | 293 | 4.0 | 10.0 | 0.00 | 0.00 | 0.00 | 42 | 1011.0 |
| 20260506144714 | 42 | 288 | 2.0 | 8.0 | 0.00 | 0.00 | 0.00 | 39 | 1011.1 |
| 20260506143605 | 44 | 298 | 0.0 | 10.0 | 0.00 | 0.00 | 0.00 | 39 | 1011.1 |
| 20260506142913 | 43 | 282 | 6.0 | 11.0 | 0.00 | 0.00 | 0.00 | 40 | 1011.2 |
| 20260506142016 | 42 | 307 | 10.0 | 11.0 | 0.00 | 0.00 | 0.00 | 39 | 1011.2 |
| 20260506140903 | 42 | 269 | 3.0 | 13.0 | 0.00 | 0.00 | 0.00 | 38 | 1011.2 |
| 20260506140215 | 42 | 273 | 13.0 | 13.0 | 0.00 | 0.00 | 0.00 | 37 | 1011.3 |
| 20260506135405 | 42 | 300 | 9.0 | 13.0 | 0.00 | 0.00 | 0.00 | 37 | 1011.1 |
| 20260506134714 | 42 | 283 | 3.0 | 13.0 | 0.00 | 0.00 | 0.00 | 39 | 1011.2 |
| 20260506133603 | 41 | 294 | 7.0 | 14.0 | 0.00 | 0.00 | 0.00 | 42 | 1011.2 |
| 20260506132914 | 40 | 301 | 2.0 | 14.0 | 0.00 | 0.00 | 0.00 | 41 | 1011.1 |
| 20260506132016 | 43 | 280 | 4.0 | 11.0 | 0.00 | 0.00 | 0.00 | 39 | 1011.1 |
| 20260506130903 | 44 | 274 | 8.0 | 13.0 | 0.00 | 0.00 | 0.00 | 40 | 1011.3 |
| 20260506130216 | 46 | 295 | 7.0 | 12.0 | 0.00 | 0.00 | 0.00 | 36 | 1011.3 |
| 20260506125613 | 47 | 313 | 2.0 | 8.0 | 0.00 | 0.00 | 0.00 | 35 | 1011.3 |
| 20260506124715 | 45 | 281 | 1.0 | 13.0 | 0.00 | 0.00 | 0.00 | 39 | 1011.2 |
| 20260506123603 | 43 | 273 | 6.0 | 9.0 | 0.00 | 0.00 | 0.00 | 41 | 1011.3 |
| 20260506122915 | 43 | 271 | 5.0 | 9.0 | 0.00 | 0.00 | 0.00 | 43 | 1011.4 |
| 20260506122017 | 43 | 261 | 9.0 | 9.0 | 0.00 | 0.00 | 0.00 | 42 | 1011.4 |
| 20260506120903 | 42 | 277 | 7.0 | 7.0 | 0.00 | 0.00 | 0.00 | 41 | 1011.3 |
| 20260506120217 | 42 | 275 | 5.0 | 9.0 | 0.00 | 0.00 | 0.00 | 42 | 1011.2 |
| 20260506115403 | 44 | 292 | 9.0 | 13.0 | 0.00 | 0.00 | 0.00 | 38 | 1011.2 |
| 20260506114503 | 43 | 293 | 7.0 | 11.0 | 0.00 | 0.00 | 0.00 | 40 | 1011.2 |
| 20260506113603 | 43 | 302 | 8.0 | 9.0 | 0.00 | 0.00 | 0.00 | 40 | 1011.3 |
| 20260506112915 | 44 | 319 | 2.0 | 8.0 | 0.00 | 0.00 | 0.00 | 43 | 1011.1 |
| 20260506112018 | 42 | 293 | 3.0 | 13.0 | 0.00 | 0.00 | 0.00 | 43 | 1011.1 |
| 20260506110903 | 44 | 296 | 4.0 | 9.0 | 0.00 | 0.00 | 0.00 | 41 | 1011.1 |
| 20260506110217 | 43 | 291 | 9.0 | 11.0 | 0.00 | 0.00 | 0.00 | 41 | 1011.2 |
| 20260506105614 | 42 | 273 | 2.0 | 11.0 | 0.00 | 0.00 | 0.00 | 40 | 1011.2 |
| 20260506104716 | 45 | 270 | 10.0 | 10.0 | 0.00 | 0.00 | 0.00 | 39 | 1011.1 |
| 20260506103814 | 41 | 287 | 4.0 | 14.0 | 0.00 | 0.00 | 0.00 | 43 | 1011.0 |
| 20260506102703 | 42 | 314 | 4.0 | 17.0 | 0.00 | 0.00 | 0.00 | 41 | 1011.1 |
| 20260506101803 | 39 | 282 | 3.0 | 9.0 | 0.00 | 0.00 | 0.00 | 46 | 1011.1 |
| 20260506101116 | 39 | 287 | 9.0 | 12.0 | 0.00 | 0.00 | 0.00 | 44 | 1011.1 |
| 20260506100003 | 39 | 306 | 1.0 | 7.0 | 0.00 | 0.00 | 0.00 | 45 | 1011.1 |
| 20260506095403 | 39 | 286 | 4.0 | 12.0 | 0.00 | 0.00 | 0.00 | 44 | 1011.1 |
| 20260506094503 | 40 | 281 | 12.0 | 12.0 | 0.00 | 0.00 | 0.00 | 44 | 1011.1 |
| 20260506093603 | 40 | 270 | 7.0 | 10.0 | 0.00 | 0.00 | 0.00 | 45 | 1011.2 |
| 20260506092917 | 41 | 278 | 10.0 | 10.0 | 0.00 | 0.00 | 0.00 | 45 | 1011.2 |
| 20260506092014 | 39 | 283 | 2.0 | 8.0 | 0.00 | 0.00 | 0.00 | 47 | 1011.1 |
| 20260506091116 | 38 | 272 | 6.0 | 7.0 | 0.00 | 0.00 | 0.00 | 47 | 1011.0 |
| 20260506090005 | 39 | 289 | 8.0 | 8.0 | 0.00 | 0.00 | 0.00 | 47 | 1011.1 |
| 20260506085403 | 38 | 290 | 6.0 | 6.0 | 0.00 | 0.00 | 0.00 | 46 | 1011.1 |
| 20260506084504 | 38 | 267 | 1.0 | 4.0 | 0.00 | 0.00 | 0.00 | 50 | 1011.2 |
| 20260506083603 | 37 | 285 | 2.0 | 12.0 | 0.00 | 0.00 | 0.00 | 48 | 1011.3 |
| 20260506082917 | 38 | 273 | 5.0 | 10.0 | 0.00 | 0.00 | 0.00 | 48 | 1011.3 |
| 20260506081803 | 38 | 287 | 10.0 | 10.0 | 0.00 | 0.00 | 0.00 | 48 | 1011.2 |
| 20260506081117 | 38 | 289 | 5.0 | 10.0 | 0.00 | 0.00 | 0.00 | 48 | 1011.2 |
| 20260506080214 | 36 | 282 | 8.0 | 9.0 | 0.00 | 0.00 | 0.00 | 50 | 1011.3 |
| 20260506072918 | 36 | 280 | 4.0 | 7.0 | 0.00 | 0.00 | 0.00 | 52 | 1011.3 |
| 20260506072016 | 35 | 313 | 7.0 | 7.0 | 0.00 | 0.00 | 0.00 | 52 | 1011.3 |
| 20260506071112 | 35 | 281 | 1.0 | 9.0 | 0.00 | 0.00 | 0.00 | 53 | 1011.4 |
| 20260506061803 | 34 | 272 | 4.0 | 7.0 | 0.00 | 0.00 | 0.00 | 55 | 1011.0 |
| 20260506061113 | 34 | 270 | 2.0 | 7.0 | 0.00 | 0.00 | 0.00 | 55 | 1010.9 |
| 20260506051114 | 29 | 293 | 6.0 | 8.0 | 0.00 | 0.00 | 0.00 | 62 | 1010.8 |
| 20260506044503 | 27 | 301 | 2.0 | 9.0 | 0.00 | 0.00 | 0.00 | 65 | 1010.8 |
| 20260506043817 | 26 | 326 | 0.0 | 4.0 | 0.00 | 0.00 | 0.00 | 66 | 1010.8 |
| 20260506042703 | 26 | 320 | 2.0 | 3.0 | 0.00 | 0.00 | 0.00 | 67 | 1010.8 |
| 20260506042017 | 26 | 317 | 3.0 | 3.0 | 0.00 | 0.00 | 0.00 | 68 | 1010.8 |
| 20260506041114 | 26 | 321 | 2.0 | 2.0 | 0.00 | 0.00 | 0.00 | 67 | 1010.9 |
| 20260506040217 | 26 | 311 | 2.0 | 5.0 | 0.00 | 0.00 | 0.00 | 66 | 1010.9 |
| 20260506035613 | 27 | 317 | 5.0 | 5.0 | 0.00 | 0.00 | 0.00 | 66 | 1010.9 |
| 20260506034716 | 27 | 319 | 5.0 | 5.0 | 0.00 | 0.00 | 0.00 | 66 | 1011.0 |
| 20260506033603 | 27 | 298 | 3.0 | 10.0 | 0.00 | 0.00 | 0.00 | 66 | 1010.9 |
| 20260506032915 | 28 | 301 | 2.0 | 9.0 | 0.00 | 0.00 | 0.00 | 67 | 1010.9 |
| 20260506031803 | 27 | 330 | 4.0 | 6.0 | 0.00 | 0.00 | 0.00 | 69 | 1011.0 |
| 20260506030903 | 26 | 317 | 4.0 | 5.0 | 0.00 | 0.00 | 0.00 | 71 | 1011.0 |
| 20260506030212 | 26 | 10 | 2.0 | 4.0 | 0.00 | 0.00 | 0.00 | 74 | 1011.0 |
| 20260506025614 | 25 | 7 | 2.0 | 4.0 | 0.00 | 0.00 | 0.00 | 75 | 1011.0 |
| 20260506024716 | 23 | 302 | 2.0 | 6.0 | 0.00 | 0.00 | 0.00 | 77 | 1011.1 |
| 20260506023603 | 21 | 101 | 0.0 | 2.0 | 0.00 | 0.00 | 0.00 | 77 | 1011.1 |
| 20260506022916 | 21 | 112 | 0.0 | 2.0 | 0.00 | 0.00 | 0.00 | 77 | 1011.2 |
| 20260506021803 | 20 | 0 | 0.0 | 0.0 | 0.00 | 0.00 | 0.00 | 76 | 1011.2 |
| 20260506021116 | 20 | 0 | 0.0 | 0.0 | 0.00 | 0.00 | 0.00 | 76 | 1011.2 |
| 20260506020003 | 21 | 0 | 0.0 | 0.0 | 0.00 | 0.00 | 0.00 | 76 | 1011.2 |
| 20260506015403 | 21 | 0 | 0.0 | 0.0 | 0.00 | 0.00 | 0.00 | 76 | 1011.3 |
| 20260506014717 | 21 | 0 | 0.0 | 0.0 | 0.00 | 0.00 | 0.00 | 76 | 1011.3 |
| 20260506013603 | 22 | 135 | 0.0 | 1.0 | 0.00 | 0.00 | 0.00 | 76 | 1011.3 |
| 20260506012703 | 22 | 0 | 0.0 | 0.0 | 0.00 | 0.00 | 0.00 | 76 | 1011.4 |
| 20260506011803 | 22 | 0 | 0.0 | 0.0 | 0.00 | 0.00 | 0.00 | 77 | 1011.3 |
| 20260506011116 | 23 | 0 | 0.0 | 0.0 | 0.00 | 0.00 | 0.00 | 77 | 1011.4 |
| 20260506010214 | 23 | 0 | 0.0 | 0.0 | 0.00 | 0.00 | 0.00 | 76 | 1011.4 |
| 20260506005403 | 23 | 0 | 0.0 | 0.0 | 0.00 | 0.00 | 0.00 | 77 | 1011.5 |
| 20260506004718 | 22 | 0 | 0.0 | 0.0 | 0.00 | 0.00 | 0.00 | 77 | 1011.4 |
| 20260506003815 | 22 | 0 | 0.0 | 0.0 | 0.00 | 0.00 | 0.00 | 75 | 1011.5 |
| 20260506002703 | 22 | 0 | 0.0 | 0.0 | 0.00 | 0.00 | 0.00 | 75 | 1011.5 |
| 20260506001805 | 22 | 0 | 0.0 | 0.0 | 0.00 | 0.00 | 0.00 | 75 | 1011.5 |
| 20260506000903 | 22 | 0 | 0.0 | 0.0 | 0.00 | 0.00 | 0.00 | 75 | 1011.4 |
| 20260506000003 | 22 | 0 | 0.0 | 0.0 | 0.00 | 0.00 | 0.00 | 75 | 1011.6 |
| 20260505235403 | 22 | 0 | 0.0 | 0.0 | 0.00 | 0.00 | 0.00 | 75 | 1011.7 |
| 20260505234713 | 22 | 0 | 0.0 | 0.0 | 0.00 | 0.00 | 0.00 | 74 | 1011.5 |
| 20260505233815 | 22 | 0 | 0.0 | 0.0 | 0.00 | 0.00 | 0.00 | 73 | 1011.5 |
| 20260505232913 | 22 | 0 | 0.0 | 0.0 | 0.00 | 0.00 | 0.00 | 73 | 1011.4 |
| 20260505232015 | 22 | 0 | 0.0 | 0.0 | 0.00 | 0.00 | 0.00 | 72 | 1011.3 |
| 20260505231112 | 23 | 0 | 0.0 | 0.0 | 0.00 | 0.00 | 0.00 | 72 | 1011.4 |
| 20260505230215 | 23 | 0 | 0.0 | 0.0 | 0.00 | 0.00 | 0.00 | 71 | 1011.1 |
| 20260505225403 | 23 | 0 | 0.0 | 0.0 | 0.00 | 0.00 | 0.00 | 71 | 1011.0 |
| 20260505224714 | 23 | 0 | 0.0 | 0.0 | 0.00 | 0.00 | 0.00 | 71 | 1011.0 |
| 20260505223603 | 24 | 135 | 0.0 | 1.0 | 0.00 | 0.00 | 0.00 | 70 | 1011.0 |
| 20260505222703 | 24 | 135 | 1.0 | 1.0 | 0.00 | 0.00 | 0.00 | 69 | 1010.8 |
| 20260505222016 | 24 | 0 | 0.0 | 0.0 | 0.00 | 0.00 | 0.00 | 69 | 1010.8 |
| 20260505220903 | 24 | 112 | 1.0 | 1.0 | 0.00 | 0.00 | 0.00 | 67 | 1010.9 |
| 20260505220215 | 24 | 0 | 0.0 | 0.0 | 0.00 | 0.00 | 0.00 | 67 | 1010.8 |
| 20260505215617 | 25 | 0 | 0.0 | 0.0 | 0.00 | 0.00 | 0.00 | 67 | 1010.8 |
| 20260505214503 | 25 | 0 | 0.0 | 0.0 | 0.00 | 0.00 | 0.00 | 66 | 1010.9 |
| 20260505213817 | 26 | 0 | 0.0 | 0.0 | 0.00 | 0.00 | 0.00 | 66 | 1010.9 |
| 20260505212914 | 26 | 0 | 0.0 | 0.0 | 0.00 | 0.00 | 0.00 | 65 | 1010.8 |
| 20260505211803 | 27 | 18 | 0.0 | 1.0 | 0.00 | 0.00 | 0.00 | 65 | 1010.9 |
| 20260505211114 | 28 | 198 | 1.0 | 1.0 | 0.00 | 0.00 | 0.00 | 62 | 1010.8 |
| 20260505210216 | 28 | 328 | 0.0 | 2.0 | 0.00 | 0.00 | 0.00 | 62 | 1010.6 |
| 20260505205403 | 28 | 6 | 2.0 | 3.0 | 0.00 | 0.00 | 0.00 | 62 | 1010.5 |
| 20260505204715 | 29 | 16 | 0.0 | 6.0 | 0.00 | 0.00 | 0.00 | 61 | 1010.5 |
| 20260505203603 | 29 | 60 | 2.0 | 3.0 | 0.00 | 0.00 | 0.00 | 61 | 1010.4 |
| 20260505202915 | 29 | 42 | 0.0 | 5.0 | 0.00 | 0.00 | 0.00 | 61 | 1010.5 |
| 20260505201803 | 29 | 22 | 2.0 | 2.0 | 0.00 | 0.00 | 0.00 | 60 | 1010.5 |
| 20260505201114 | 29 | 0 | 0.0 | 0.0 | 0.00 | 0.00 | 0.00 | 59 | 1010.4 |
| 20260505200004 | 29 | 0 | 0.0 | 0.0 | 0.00 | 0.00 | 0.00 | 58 | 1010.3 |
| 20260505195403 | 30 | 0 | 0.0 | 0.0 | 0.00 | 0.00 | 0.00 | 58 | 1010.2 |
| 20260505194503 | 30 | 353 | 0.0 | 2.0 | 0.00 | 0.00 | 0.00 | 58 | 1010.0 |
| 20260505193813 | 31 | 299 | 1.0 | 3.0 | 0.00 | 0.00 | 0.00 | 59 | 1010.0 |
| 20260505192703 | 31 | 323 | 3.0 | 4.0 | 0.00 | 0.00 | 0.00 | 59 | 1009.9 |
| 20260505191803 | 31 | 327 | 4.0 | 4.0 | 0.00 | 0.00 | 0.00 | 57 | 1009.9 |
| 20260505191115 | 31 | 332 | 1.0 | 1.0 | 0.00 | 0.00 | 0.00 | 56 | 1010.0 |
| 20260505190004 | 31 | 24 | 0.0 | 4.0 | 0.00 | 0.00 | 0.00 | 55 | 1009.9 |
| 20260505185614 | 31 | 25 | 0.0 | 4.0 | 0.00 | 0.00 | 0.00 | 55 | 1009.9 |
| 20260505184716 | 32 | 294 | 1.0 | 4.0 | 0.00 | 0.00 | 0.00 | 55 | 1009.8 |
| 20260505183603 | 32 | 286 | 1.0 | 5.0 | 0.00 | 0.00 | 0.00 | 54 | 1009.6 |
| 20260505182703 | 33 | 289 | 3.0 | 8.0 | 0.00 | 0.00 | 0.00 | 54 | 1009.6 |
| 20260505181803 | 33 | 277 | 3.0 | 5.0 | 0.00 | 0.00 | 0.00 | 54 | 1009.5 |
| 20260505180903 | 33 | 278 | 5.0 | 8.0 | 0.00 | 0.00 | 0.00 | 53 | 1009.5 |
| 20260505180213 | 34 | 281 | 4.0 | 7.0 | 0.00 | 0.00 | 0.00 | 53 | 1009.4 |
| 20260505175615 | 34 | 298 | 3.0 | 12.0 | 0.00 | 0.00 | 0.00 | 52 | 1009.5 |
| 20260505174717 | 34 | 302 | 12.0 | 12.0 | 0.00 | 0.00 | 0.00 | 52 | 1009.5 |
| 20260505173605 | 35 | 289 | 5.0 | 15.0 | 0.00 | 0.00 | 0.00 | 53 | 1009.5 |
| 20260505172703 | 36 | 305 | 7.0 | 14.0 | 0.00 | 0.00 | 0.00 | 51 | 1009.5 |
| 20260505172014 | 36 | 310 | 6.0 | 14.0 | 0.00 | 0.00 | 0.00 | 51 | 1009.4 |
| 20260505170903 | 37 | 282 | 4.0 | 9.0 | 0.00 | 0.00 | 0.00 | 53 | 1009.3 |